Time;durP1;ratioP1;P1;durP2;ratioP2;P2;SDS_P1;SDS_P2;PMS_P1;PMS_P2;Temp;Humidity;BMP_temperature;BMP_pressure;BME280_temperature;BME280_humidity;BME280_pressure;Samples;Min_cycle;Max_cycle;Signal;HPM_P1;HPM_P2
2021/01/21 00:02:01;;;;;;;7.35;1.80;;;9.70;99.90;;;;;;5028909;28;20021;-45
2021/01/21 00:04:27;;;;;;;4.18;1.75;;;9.70;99.90;;;;;;5027787;28;20405;-47
2021/01/21 00:06:53;;;;;;;4.45;1.73;;;9.60;99.90;;;;;;5028730;28;20091;-44
2021/01/21 00:09:20;;;;;;;5.63;2.40;;;9.50;99.90;;;;;;5027556;28;20049;-45
2021/01/21 00:11:45;;;;;;;4.68;2.00;;;9.50;99.90;;;;;;5028909;28;20032;-44
2021/01/21 00:14:11;;;;;;;4.50;1.80;;;9.40;99.90;;;;;;5029127;28;20108;-43
2021/01/21 00:16:36;;;;;;;3.47;1.90;;;9.50;99.90;;;;;;5028230;28;20022;-46
2021/01/21 00:19:02;;;;;;;4.28;2.35;;;9.50;99.90;;;;;;5028710;28;20486;-45
2021/01/21 00:21:27;;;;;;;3.53;1.40;;;9.60;99.90;;;;;;5028672;28;20029;-47
2021/01/21 00:23:53;;;;;;;5.25;2.08;;;9.60;99.70;;;;;;5028961;28;20037;-45
2021/01/21 00:26:18;;;;;;;4.50;1.75;;;9.70;99.50;;;;;;5027327;28;20399;-44
2021/01/21 00:28:44;;;;;;;4.53;1.75;;;9.70;99.70;;;;;;5028757;28;20040;-45
2021/01/21 00:31:09;;;;;;;10.00;2.70;;;9.70;99.20;;;;;;5028882;28;20493;-44
2021/01/21 00:33:35;;;;;;;3.40;2.00;;;9.80;99.30;;;;;;5028046;28;20557;-43
2021/01/21 00:36:00;;;;;;;7.25;2.00;;;9.80;98.80;;;;;;5027169;28;20018;-46
2021/01/21 00:38:26;;;;;;;5.07;1.63;;;10.00;97.90;;;;;;5027956;28;20061;-44
2021/01/21 00:40:51;;;;;;;4.72;2.25;;;10.00;97.60;;;;;;5027960;28;20533;-43
2021/01/21 00:43:16;;;;;;;5.18;2.17;;;10.00;97.80;;;;;;5027815;28;20026;-46
2021/01/21 00:45:42;;;;;;;3.78;1.77;;;10.00;97.70;;;;;;5027050;28;20029;-46
2021/01/21 00:48:08;;;;;;;2.92;1.75;;;9.90;98.00;;;;;;5026329;28;20033;-45
2021/01/21 00:50:33;;;;;;;4.20;1.88;;;9.90;98.30;;;;;;5027302;28;20557;-44
2021/01/21 00:52:59;;;;;;;3.72;1.65;;;9.80;98.80;;;;;;5026239;28;20022;-47
2021/01/21 00:55:24;;;;;;;5.38;2.00;;;9.70;99.00;;;;;;5026865;28;20474;-45
2021/01/21 00:57:49;;;;;;;5.70;2.05;;;9.70;99.30;;;;;;5027426;28;20095;-45
2021/01/21 01:00:15;;;;;;;5.88;2.03;;;9.70;99.10;;;;;;5027202;28;20382;-43
2021/01/21 01:02:41;;;;;;;8.07;1.77;;;9.70;99.30;;;;;;5027401;28;20049;-45
2021/01/21 01:05:07;;;;;;;4.57;1.88;;;9.70;98.90;;;;;;5026541;28;20033;-44
2021/01/21 01:07:33;;;;;;;5.47;2.25;;;9.60;99.20;;;;;;5027405;28;20061;-44
2021/01/21 01:09:58;;;;;;;4.07;2.03;;;9.60;99.30;;;;;;5027330;28;20053;-43
2021/01/21 01:12:24;;;;;;;3.80;1.60;;;9.60;99.30;;;;;;5027316;28;20025;-44
2021/01/21 01:14:49;;;;;;;7.90;2.15;;;9.60;99.40;;;;;;5026744;28;20040;-45
2021/01/21 01:17:15;;;;;;;3.35;1.42;;;9.60;98.90;;;;;;5029506;28;20124;-45
2021/01/21 01:19:41;;;;;;;4.38;1.83;;;9.60;98.70;;;;;;5030606;28;20068;-44
2021/01/21 01:22:06;;;;;;;5.70;2.15;;;9.70;98.50;;;;;;5030603;28;20025;-45
2021/01/21 01:24:32;;;;;;;2.40;1.45;;;9.70;98.60;;;;;;5030383;28;20041;-46
2021/01/21 01:26:57;;;;;;;9.35;2.17;;;9.70;98.50;;;;;;5030448;28;20036;-45
2021/01/21 01:29:22;;;;;;;3.03;1.67;;;9.80;98.00;;;;;;5030686;28;20036;-45
2021/01/21 01:31:48;;;;;;;3.92;1.85;;;9.90;97.80;;;;;;5030608;28;20471;-45
2021/01/21 01:34:13;;;;;;;3.00;1.65;;;9.90;97.20;;;;;;5011855;28;566201;-47
2021/01/21 01:36:39;;;;;;;6.78;1.95;;;9.90;97.20;;;;;;5031541;28;20025;-45
2021/01/21 01:39:05;;;;;;;5.10;2.00;;;9.90;97.40;;;;;;5032095;28;20029;-45
2021/01/21 01:41:30;;;;;;;2.33;1.63;;;9.90;96.90;;;;;;5031779;28;20397;-45
2021/01/21 01:43:56;;;;;;;5.80;2.17;;;10.00;96.90;;;;;;5031620;28;20066;-46
2021/01/21 01:46:26;;;;;;;4.53;1.90;;;10.00;96.70;;;;;;5030925;28;20495;-47
2021/01/21 01:48:54;;;;;;;5.97;1.70;;;9.90;96.90;;;;;;5031362;28;20064;-44
2021/01/21 01:51:19;;;;;;;4.93;1.63;;;9.90;97.10;;;;;;5031456;28;20029;-45
2021/01/21 01:53:45;;;;;;;5.30;1.63;;;9.80;97.30;;;;;;5031590;28;20021;-47
2021/01/21 01:56:10;;;;;;;4.45;1.77;;;9.90;97.00;;;;;;5030632;28;20053;-45
2021/01/21 01:58:36;;;;;;;6.00;2.20;;;9.80;97.00;;;;;;5031380;28;20076;-44
2021/01/21 02:01:01;;;;;;;7.60;2.08;;;9.80;97.20;;;;;;5031329;28;20211;-48
2021/01/21 02:03:27;;;;;;;4.75;1.83;;;9.80;97.10;;;;;;5031285;28;20454;-44
2021/01/21 02:05:52;;;;;;;4.47;1.70;;;9.80;97.00;;;;;;5030304;28;20029;-43
2021/01/21 02:08:22;;;;;;;3.83;1.98;;;9.90;96.70;;;;;;5030984;28;20109;-47
2021/01/21 02:10:48;;;;;;;2.45;1.70;;;9.90;96.70;;;;;;5030920;28;20099;-47
2021/01/21 02:13:49;;;;;;;4.78;1.95;;;9.90;96.60;;;;;;5030972;28;20422;-47
2021/01/21 02:16:27;;;;;;;;;;;10.00;95.80;;;;;;5030848;28;20108;-47
2021/01/21 02:19:24;;;;;;;5.07;1.80;;;10.10;95.80;;;;;;5030774;28;19956;-45
2021/01/21 02:22:10;;;;;;;3.30;1.70;;;10.00;95.50;;;;;;5031196;28;20546;-45
2021/01/21 02:25:15;;;;;;;4.32;1.60;;;10.10;95.00;;;;;;5030720;28;20040;-45
2021/01/21 02:27:46;;;;;;;7.43;1.83;;;10.10;95.10;;;;;;5030726;28;20033;-45
2021/01/21 02:30:45;;;;;;;5.32;1.65;;;10.10;94.90;;;;;;5030913;28;20245;-45
2021/01/21 02:33:40;;;;;;;2.85;1.75;;;10.10;95.00;;;;;;5036122;28;20469;-45
2021/01/21 02:36:08;;;;;;;3.40;2.05;;;10.10;94.70;;;;;;5029751;28;20629;-44
2021/01/21 02:38:36;;;;;;;3.28;1.88;;;10.10;95.20;;;;;;5030544;28;20099;-45
2021/01/21 02:41:02;;;;;;;4.32;1.50;;;10.00;95.10;;;;;;5030596;28;20049;-44
2021/01/21 02:43:28;;;;;;;4.57;1.60;;;10.00;94.90;;;;;;5030451;28;20033;-45
2021/01/21 02:45:53;;;;;;;4.82;1.40;;;10.00;94.40;;;;;;5028559;28;20040;-46
2021/01/21 02:48:19;;;;;;;4.40;1.85;;;10.00;94.00;;;;;;5028893;28;20029;-46
2021/01/21 02:50:44;;;;;;;5.25;1.77;;;10.00;94.10;;;;;;5030209;28;20105;-45
2021/01/21 02:53:10;;;;;;;3.45;1.60;;;10.10;93.40;;;;;;5030448;28;20017;-46
2021/01/21 02:56:00;;;;;;;2.97;1.63;;;10.10;92.90;;;;;;5029690;28;20168;-46
2021/01/21 02:58:41;;;;;;;3.88;1.90;;;10.10;92.80;;;;;;5029771;28;20410;-44
2021/01/21 03:01:08;;;;;;;3.55;1.67;;;10.10;92.60;;;;;;5030218;28;20621;-44
2021/01/21 03:03:36;;;;;;;3.95;1.98;;;10.00;92.80;;;;;;5030238;28;20029;-44
2021/01/21 03:06:02;;;;;;;3.97;2.00;;;10.00;92.90;;;;;;5029006;28;20113;-47
2021/01/21 03:08:28;;;;;;;5.18;1.92;;;10.10;92.40;;;;;;5029430;28;20533;-47
2021/01/21 03:11:10;;;;;;;4.47;1.70;;;10.00;92.30;;;;;;5030531;28;20079;-44
2021/01/21 03:13:39;;;;;;;4.18;1.63;;;10.00;92.40;;;;;;5030267;28;20647;-43
2021/01/21 03:16:05;;;;;;;6.40;1.60;;;10.10;92.00;;;;;;5029756;28;20030;-46
2021/01/21 03:18:31;;;;;;;2.05;1.55;;;10.10;91.90;;;;;;5030191;28;20092;-45
2021/01/21 03:20:56;;;;;;;3.60;1.45;;;10.10;92.10;;;;;;5028719;28;20542;-45
2021/01/21 03:23:22;;;;;;;4.32;1.83;;;10.10;92.00;;;;;;5029985;28;20037;-43
2021/01/21 03:25:47;;;;;;;3.17;1.40;;;10.00;92.10;;;;;;5029628;28;20026;-45
2021/01/21 03:28:13;;;;;;;4.03;1.95;;;10.00;92.40;;;;;;5029940;28;20025;-46
2021/01/21 03:30:39;;;;;;;5.30;1.70;;;10.00;92.10;;;;;;5029661;28;20821;-44
2021/01/21 03:33:05;;;;;;;4.85;1.98;;;10.00;92.30;;;;;;5029539;28;20124;-44
2021/01/21 03:35:30;;;;;;;3.13;1.42;;;10.00;92.10;;;;;;5028787;28;20109;-45
2021/01/21 03:37:56;;;;;;;3.13;1.98;;;10.00;92.00;;;;;;5029390;28;20605;-44
2021/01/21 03:40:21;;;;;;;3.40;1.70;;;10.00;92.10;;;;;;5028724;28;20087;-45
2021/01/21 03:42:47;;;;;;;6.30;2.30;;;10.00;92.20;;;;;;5029608;28;20033;-45
2021/01/21 03:45:13;;;;;;;7.38;2.13;;;10.00;92.00;;;;;;5028648;28;20051;-46
2021/01/21 03:47:38;;;;;;;2.78;1.80;;;10.10;91.90;;;;;;5029199;28;20048;-43
2021/01/21 03:50:05;;;;;;;7.88;1.83;;;10.10;91.90;;;;;;5029138;28;20029;-45
2021/01/21 03:52:30;;;;;;;7.82;2.03;;;10.20;91.30;;;;;;5029516;28;20048;-44
2021/01/21 03:54:55;;;;;;;5.40;2.03;;;10.20;91.20;;;;;;5028566;28;20029;-44
2021/01/21 03:57:21;;;;;;;3.88;1.65;;;10.10;91.20;;;;;;5027927;28;20029;-43
2021/01/21 03:59:46;;;;;;;2.13;1.60;;;10.10;91.30;;;;;;5029022;28;20061;-47
2021/01/21 04:02:12;;;;;;;9.82;2.05;;;10.20;90.90;;;;;;5029266;28;20027;-45
2021/01/21 04:04:37;;;;;;;5.63;2.00;;;10.20;90.80;;;;;;5028152;28;20112;-44
2021/01/21 04:07:03;;;;;;;3.60;1.50;;;10.20;90.80;;;;;;5027249;28;20391;-44
2021/01/21 04:09:28;;;;;;;4.03;1.60;;;10.20;90.50;;;;;;5028216;28;20029;-45
2021/01/21 04:11:54;;;;;;;2.10;1.73;;;10.20;90.40;;;;;;5028479;28;20021;-45
2021/01/21 04:14:19;;;;;;;4.07;1.60;;;10.20;90.50;;;;;;5028320;28;20021;-44
2021/01/21 04:16:45;;;;;;;3.83;1.40;;;10.10;90.80;;;;;;5027826;28;20295;-46
2021/01/21 04:19:11;;;;;;;4.60;2.17;;;10.10;91.30;;;;;;5026773;28;20072;-48
2021/01/21 04:21:36;;;;;;;3.83;2.05;;;10.10;91.30;;;;;;5028511;28;20025;-46
2021/01/21 04:24:02;;;;;;;4.43;1.77;;;9.90;91.80;;;;;;5028400;28;20040;-47
2021/01/21 04:26:28;;;;;;;4.80;1.55;;;9.90;91.90;;;;;;5026256;28;20036;-45
2021/01/21 04:28:54;;;;;;;2.30;1.30;;;9.80;91.50;;;;;;5028448;28;20022;-44
2021/01/21 04:31:20;;;;;;;3.25;1.73;;;9.90;91.30;;;;;;5028763;28;20157;-45
2021/01/21 04:33:45;;;;;;;5.57;1.83;;;9.80;91.40;;;;;;5027082;28;20060;-48
2021/01/21 04:36:11;;;;;;;4.28;1.50;;;9.90;90.80;;;;;;5027663;28;20479;-47
2021/01/21 04:38:36;;;;;;;2.85;1.67;;;9.80;91.30;;;;;;5028356;28;20029;-45
2021/01/21 04:41:02;;;;;;;2.90;1.52;;;9.80;91.40;;;;;;5028410;28;20116;-46
2021/01/21 04:43:28;;;;;;;5.25;1.85;;;9.80;90.90;;;;;;5025497;28;20029;-45
2021/01/21 04:45:55;;;;;;;4.53;1.50;;;9.90;90.20;;;;;;5026329;28;20102;-47
2021/01/21 04:48:23;;;;;;;3.75;1.30;;;10.00;89.80;;;;;;5027521;28;20036;-45
2021/01/21 04:50:50;;;;;;;4.28;1.73;;;9.90;90.00;;;;;;5027783;28;20045;-44
2021/01/21 04:53:19;;;;;;;3.75;1.45;;;10.00;88.90;;;;;;5031574;28;20041;-45
2021/01/21 04:55:48;;;;;;;4.40;1.60;;;10.10;88.30;;;;;;5029867;28;20052;-46
2021/01/21 04:58:23;;;;;;;5.18;1.27;;;10.10;88.10;;;;;;5030225;28;20029;-46
2021/01/21 05:00:49;;;;;;;2.92;1.38;;;10.10;88.20;;;;;;5032325;28;20025;-46
2021/01/21 05:03:16;;;;;;;4.85;1.70;;;10.10;88.10;;;;;;5032078;28;20028;-45
2021/01/21 05:05:41;;;;;;;3.63;1.58;;;10.20;86.80;;;;;;5030983;28;20030;-45
2021/01/21 05:08:10;;;;;;;4.32;1.58;;;10.20;86.30;;;;;;5030708;28;20025;-44
2021/01/21 05:10:36;;;;;;;5.53;1.52;;;10.20;86.10;;;;;;5031832;28;20021;-45
2021/01/21 05:13:02;;;;;;;5.47;2.28;;;10.10;86.60;;;;;;5031930;28;20053;-46
2021/01/21 05:15:28;;;;;;;4.72;1.88;;;10.10;87.50;;;;;;5029727;28;20030;-47
2021/01/21 05:17:54;;;;;;;6.85;1.80;;;10.00;87.10;;;;;;5030470;28;20025;-45
2021/01/21 05:20:25;;;;;;;3.10;1.33;;;10.00;86.70;;;;;;5031333;28;20025;-47
2021/01/21 05:23:01;;;;;;;1.88;1.40;;;10.00;87.60;;;;;;5031615;28;20119;-48
2021/01/21 05:25:27;;;;;;;1.98;1.50;;;9.90;87.30;;;;;;5031101;28;21080;-45
2021/01/21 05:27:55;;;;;;;2.13;1.50;;;9.90;87.40;;;;;;5027946;28;20104;-46
2021/01/21 05:30:21;;;;;;;5.03;1.80;;;9.80;88.30;;;;;;5031552;28;20051;-44
2021/01/21 05:32:49;;;;;;;4.10;1.30;;;9.80;88.50;;;;;;5029888;28;20037;-45
2021/01/21 05:35:16;;;;;;;4.85;1.73;;;9.70;89.40;;;;;;5030390;28;20557;-45
2021/01/21 05:37:44;;;;;;;3.53;1.70;;;9.70;89.80;;;;;;5030240;28;20505;-45
2021/01/21 05:40:10;;;;;;;3.72;1.77;;;9.70;89.70;;;;;;5031070;28;20021;-44
2021/01/21 05:42:40;;;;;;;4.55;1.70;;;9.70;90.00;;;;;;5031156;28;20029;-45
2021/01/21 05:45:06;;;;;;;1.95;1.42;;;9.70;89.40;;;;;;5030842;28;20041;-44
2021/01/21 05:47:32;;;;;;;4.75;1.50;;;9.80;89.20;;;;;;5031094;28;20249;-46
2021/01/21 05:49:57;;;;;;;5.85;2.15;;;10.00;88.00;;;;;;5031147;28;20033;-45
2021/01/21 05:52:25;;;;;;;2.75;1.38;;;10.00;88.20;;;;;;5029732;28;20026;-44
2021/01/21 05:54:51;;;;;;;4.57;1.40;;;10.10;87.90;;;;;;5030413;28;20025;-45
2021/01/21 05:57:17;;;;;;;1.70;1.25;;;10.20;86.50;;;;;;5031261;28;20022;-44
2021/01/21 05:59:43;;;;;;;1.90;1.27;;;10.40;85.50;;;;;;5030433;28;20100;-46
2021/01/21 06:02:10;;;;;;;2.15;1.17;;;10.60;84.10;;;;;;5031187;28;20391;-44
2021/01/21 06:04:36;;;;;;;3.35;1.45;;;10.60;83.30;;;;;;5030417;28;20109;-43
2021/01/21 06:07:04;;;;;;;2.58;1.50;;;10.70;82.90;;;;;;5030988;28;20684;-46
2021/01/21 06:09:40;;;;;;;1.80;1.30;;;10.70;83.20;;;;;;5031182;28;20040;-44
2021/01/21 06:12:06;;;;;;;2.03;1.30;;;10.80;81.60;;;;;;5031292;28;20037;-45
2021/01/21 06:14:31;;;;;;;2.90;1.30;;;11.00;80.20;;;;;;5030450;28;20022;-45
2021/01/21 06:16:57;;;;;;;2.38;1.58;;;10.90;80.30;;;;;;5029382;28;20036;-47
2021/01/21 06:19:24;;;;;;;3.83;1.60;;;11.00;80.10;;;;;;5031048;28;20045;-44
2021/01/21 06:22:09;;;;;;;2.80;1.63;;;10.90;80.20;;;;;;5031085;28;20121;-44
2021/01/21 06:24:46;;;;;;;3.05;1.40;;;10.90;80.10;;;;;;5030683;28;20036;-44
2021/01/21 06:27:14;;;;;;;4.90;1.42;;;10.90;81.10;;;;;;5030833;28;20022;-45
2021/01/21 06:29:46;;;;;;;3.00;1.90;;;10.90;79.90;;;;;;5030881;28;20099;-43
2021/01/21 06:32:14;;;;;;;2.60;1.33;;;10.90;79.40;;;;;;5030603;28;20130;-44
2021/01/21 06:34:42;;;;;;;4.88;1.67;;;11.00;78.60;;;;;;5029945;28;20032;-47
2021/01/21 06:37:16;;;;;;;2.58;1.23;;;11.20;77.70;;;;;;5030606;28;20513;-47
2021/01/21 06:40:08;;;;;;;3.35;1.40;;;11.20;77.60;;;;;;5030282;28;20033;-44
2021/01/21 06:42:36;;;;;;;2.92;1.30;;;11.20;82.10;;;;;;5030291;28;20024;-45
2021/01/21 06:45:05;;;;;;;2.85;1.30;;;11.20;77.20;;;;;;5027966;28;20091;-45
2021/01/21 06:47:31;;;;;;;1.77;1.40;;;11.10;76.80;;;;;;5034138;28;20033;-45
2021/01/21 06:49:59;;;;;;;1.92;1.20;;;11.20;76.40;;;;;;5028570;28;20426;-44
2021/01/21 06:52:30;;;;;;;1.48;1.23;;;11.20;76.60;;;;;;5029393;28;20021;-44
2021/01/21 06:54:58;;;;;;;3.33;1.10;;;11.20;75.80;;;;;;5033988;28;20372;-44
2021/01/21 06:57:35;;;;;;;3.72;1.48;;;11.20;75.90;;;;;;5030067;28;20025;-47
2021/01/21 07:00:12;;;;;;;5.05;1.33;;;11.10;76.10;;;;;;5029112;28;20022;-44
2021/01/21 07:02:50;;;;;;;7.38;1.48;;;11.00;76.70;;;;;;5029805;28;20226;-43
2021/01/21 07:05:17;;;;;;;3.58;1.50;;;10.90;77.70;;;;;;5028953;28;20417;-44
2021/01/21 07:08:00;;;;;;;1.73;1.20;;;10.80;77.40;;;;;;5029383;28;20028;-44
2021/01/21 07:10:33;;;;;;;4.20;1.30;;;10.80;77.90;;;;;;5027099;28;20108;-46
2021/01/21 07:13:12;;;;;;;2.75;1.67;;;10.70;78.30;;;;;;5028168;28;20513;-45
2021/01/21 07:15:50;;;;;;;1.58;1.00;;;10.70;78.70;;;;;;5028523;28;20029;-45
2021/01/21 07:18:23;;;;;;;2.83;1.27;;;10.70;79.50;;;;;;5029880;28;20438;-44
2021/01/21 07:21:07;;;;;;;1.92;1.15;;;10.70;78.90;;;;;;5029495;28;20068;-45
2021/01/21 07:23:49;;;;;;;2.30;1.48;;;10.70;80.00;;;;;;5029392;28;20029;-45
2021/01/21 07:26:24;;;;;;;2.08;1.40;;;10.70;79.70;;;;;;5028509;28;20137;-43
2021/01/21 07:28:58;;;;;;;2.50;1.10;;;10.70;80.40;;;;;;5029324;28;20033;-45
2021/01/21 07:31:24;;;;;;;1.83;1.30;;;10.70;80.20;;;;;;5029544;28;20494;-45
2021/01/21 07:34:28;;;;;;;3.28;1.40;;;10.70;80.50;;;;;;5029390;28;20037;-44
2021/01/21 07:37:27;;;;;;;3.38;1.20;;;10.70;80.80;;;;;;5029168;28;20025;-43
2021/01/21 07:39:52;;;;;;;3.63;1.13;;;10.80;81.40;;;;;;5029815;28;20033;-44
2021/01/21 07:42:19;;;;;;;3.33;1.20;;;10.80;81.30;;;;;;5029310;28;20733;-45
2021/01/21 07:44:54;;;;;;;1.95;1.15;;;10.90;81.60;;;;;;5028204;28;20041;-43
2021/01/21 07:47:30;;;;;;;4.10;1.38;;;11.00;80.70;;;;;;5009593;28;20038;-46
2021/01/21 07:50:24;;;;;;;2.33;1.33;;;11.00;81.10;;;;;;5009171;28;20530;-44
2021/01/21 07:52:51;;;;;;;2.90;1.13;;;10.90;81.70;;;;;;5008226;28;20030;-45
2021/01/21 07:55:37;;;;;;;2.15;1.30;;;10.90;81.90;;;;;;5009084;28;20113;-44
2021/01/21 07:58:40;;;;;;;4.43;1.40;;;11.00;81.60;;;;;;5025644;28;20088;-45
2021/01/21 08:01:08;;;;;;;2.80;1.25;;;11.10;82.80;;;;;;5029624;28;20048;-44
2021/01/21 08:03:37;;;;;;;1.20;1.05;;;11.20;81.70;;;;;;5029006;28;20036;-47
2021/01/21 08:06:17;;;;;;;2.42;1.45;;;11.20;82.50;;;;;;5027722;28;20025;-45
2021/01/21 08:08:47;;;;;;;2.13;1.17;;;11.10;82.90;;;;;;5026702;28;20071;-46
2021/01/21 08:11:20;;;;;;;6.15;1.38;;;11.10;82.60;;;;;;5028561;28;20052;-44
2021/01/21 08:13:47;;;;;;;2.55;1.23;;;11.10;83.50;;;;;;5026745;28;20036;-44
2021/01/21 08:16:15;;;;;;;2.15;1.40;;;11.10;84.60;;;;;;5027967;28;20021;-44
2021/01/21 08:18:42;;;;;;;1.15;1.02;;;11.00;84.60;;;;;;5023297;28;20061;-45
2021/01/21 08:21:25;;;;;;;3.05;1.30;;;11.10;84.20;;;;;;5009472;28;20052;-45
2021/01/21 08:23:56;;;;;;;2.33;1.30;;;11.20;85.40;;;;;;5009465;28;20033;-45
2021/01/21 08:26:22;;;;;;;1.38;1.10;;;11.20;85.90;;;;;;5010789;28;20029;-45
2021/01/21 08:28:48;;;;;;;3.15;1.17;;;11.20;85.40;;;;;;5027548;28;20021;-45
2021/01/21 08:31:14;;;;;;;2.05;1.30;;;11.20;86.00;;;;;;5028180;28;20120;-44
2021/01/21 08:33:42;;;;;;;2.80;1.20;;;11.20;86.00;;;;;;5027703;28;20034;-45
2021/01/21 08:36:11;;;;;;;2.15;1.27;;;11.30;86.40;;;;;;5027085;28;20080;-46
2021/01/21 08:38:44;;;;;;;1.33;1.10;;;11.40;86.80;;;;;;5027042;28;20037;-46
2021/01/21 08:41:18;;;;;;;1.95;1.10;;;11.50;86.10;;;;;;5020047;28;20025;-45
2021/01/21 08:43:45;;;;;;;1.67;1.20;;;11.60;87.00;;;;;;5026303;28;20179;-46
2021/01/21 08:46:18;;;;;;;1.73;1.10;;;11.80;86.10;;;;;;5027402;28;20051;-46
2021/01/21 08:48:44;;;;;;;2.72;1.15;;;11.80;86.30;;;;;;5007891;28;20026;-45
2021/01/21 08:51:41;;;;;;;2.03;1.00;;;11.90;86.80;;;;;;5006333;28;20551;-44
2021/01/21 08:54:09;;;;;;;3.20;1.70;;;11.80;87.40;;;;;;5007924;28;20018;-45
2021/01/21 08:56:35;;;;;;;1.33;1.08;;;11.90;88.10;;;;;;5007774;28;20043;-45
2021/01/21 08:59:02;;;;;;;4.80;1.40;;;12.00;89.80;;;;;;5027235;28;20104;-44
2021/01/21 09:01:42;;;;;;;3.72;1.10;;;11.90;91.20;;;;;;5027643;28;20017;-44
2021/01/21 09:04:22;;;;;;;2.70;1.08;;;11.60;99.00;;;;;;5025190;28;20064;-44
2021/01/21 09:06:48;;;;;;;2.40;0.60;;;11.20;99.90;;;;;;5028024;28;20033;-45
2021/01/21 09:09:44;;;;;;;0.75;0.45;;;10.70;99.90;;;;;;5028124;28;20033;-42
2021/01/21 09:12:23;;;;;;;2.35;0.50;;;10.10;99.90;;;;;;5024337;28;20537;-45
2021/01/21 09:15:09;;;;;;;1.90;0.40;;;9.80;99.90;;;;;;5026925;28;20040;-44
2021/01/21 09:17:37;;;;;;;1.40;0.50;;;9.60;99.90;;;;;;5027704;28;20029;-45
2021/01/21 09:20:19;;;;;;;0.30;0.28;;;9.30;99.90;;;;;;5023092;28;20061;-48
2021/01/21 09:22:44;;;;;;;1.67;0.40;;;9.20;99.90;;;;;;5009046;28;20082;-46
2021/01/21 09:25:10;;;;;;;2.47;1.20;;;9.10;99.90;;;;;;5007363;28;20018;-45
2021/01/21 09:27:37;;;;;;;2.80;0.40;;;9.10;99.90;;;;;;5015651;28;20026;-44
2021/01/21 09:30:12;;;;;;;0.30;0.30;;;9.00;99.90;;;;;;5021574;28;20029;-47
2021/01/21 09:32:43;;;;;;;2.63;0.73;;;8.90;99.90;;;;;;5026876;28;20048;-44
2021/01/21 09:35:13;;;;;;;2.53;0.50;;;8.80;99.90;;;;;;5024443;28;20048;-46
2021/01/21 09:37:39;;;;;;;1.10;0.30;;;8.70;99.90;;;;;;5026072;28;20034;-46
2021/01/21 09:40:07;;;;;;;1.50;0.40;;;8.70;99.90;;;;;;5030490;28;20055;-45
2021/01/21 09:42:33;;;;;;;0.52;0.50;;;8.70;99.90;;;;;;5030369;28;20029;-47
2021/01/21 09:44:59;;;;;;;0.88;0.43;;;8.70;99.90;;;;;;5030885;28;20344;-47
2021/01/21 09:47:25;;;;;;;1.70;0.40;;;8.60;99.90;;;;;;5030040;28;20033;-44
2021/01/21 09:49:52;;;;;;;2.70;0.40;;;8.60;99.90;;;;;;5031440;28;20017;-46
2021/01/21 09:52:18;;;;;;;0.40;0.35;;;8.60;99.90;;;;;;5031075;28;20056;-45
2021/01/21 09:54:43;;;;;;;0.20;0.20;;;8.50;99.90;;;;;;5030760;28;20049;-45
2021/01/21 09:57:09;;;;;;;2.20;0.30;;;8.60;99.90;;;;;;5031266;28;20017;-46
2021/01/21 09:59:35;;;;;;;1.10;0.32;;;8.50;99.90;;;;;;5031391;28;20033;-45
2021/01/21 10:02:01;;;;;;;0.82;0.50;;;8.50;99.90;;;;;;5031080;28;20059;-45
2021/01/21 10:04:26;;;;;;;0.75;0.43;;;8.50;99.90;;;;;;5030721;28;20417;-44
2021/01/21 10:06:52;;;;;;;0.20;0.20;;;8.50;99.80;;;;;;5030406;28;20395;-45
2021/01/21 10:09:18;;;;;;;1.80;0.40;;;8.60;99.10;;;;;;5030769;28;20017;-48
2021/01/21 10:11:43;;;;;;;0.93;0.38;;;8.60;99.20;;;;;;5030939;28;20028;-45
2021/01/21 10:14:09;;;;;;;0.30;0.30;;;8.70;99.00;;;;;;5030939;28;20021;-45
2021/01/21 10:16:35;;;;;;;0.40;0.35;;;8.70;98.70;;;;;;5029928;28;20028;-45
2021/01/21 10:19:01;;;;;;;1.38;0.73;;;8.60;98.30;;;;;;5030520;28;20033;-45
2021/01/21 10:21:27;;;;;;;0.77;0.50;;;8.60;98.80;;;;;;5029195;28;20037;-45
2021/01/21 10:23:53;;;;;;;0.43;0.40;;;8.60;99.50;;;;;;5029999;28;20025;-47
2021/01/21 10:26:19;;;;;;;0.40;0.40;;;8.60;99.20;;;;;;5027940;28;20095;-44
2021/01/21 10:28:46;;;;;;;2.08;0.70;;;8.60;99.90;;;;;;5029920;28;20493;-43
2021/01/21 10:31:11;;;;;;;0.52;0.40;;;8.60;99.30;;;;;;5030323;28;20064;-44
2021/01/21 10:33:37;;;;;;;0.35;0.35;;;8.60;99.90;;;;;;5030463;28;20057;-44
2021/01/21 10:36:06;;;;;;;1.20;0.80;;;8.60;98.90;;;;;;5027873;28;20025;-47
2021/01/21 10:38:32;;;;;;;0.60;0.40;;;8.60;99.40;;;;;;5027563;28;20033;-45
2021/01/21 10:40:58;;;;;;;0.52;0.40;;;8.60;98.60;;;;;;5030025;28;20503;-45
2021/01/21 10:43:24;;;;;;;0.70;0.30;;;8.60;98.50;;;;;;5030430;28;20032;-44
2021/01/21 10:45:50;;;;;;;2.05;0.57;;;8.60;99.00;;;;;;5029265;28;20257;-48
2021/01/21 10:48:16;;;;;;;0.73;0.40;;;8.70;97.90;;;;;;5029509;28;20028;-44
2021/01/21 10:50:42;;;;;;;0.45;0.35;;;8.80;96.70;;;;;;5029324;28;20091;-45
2021/01/21 10:53:08;;;;;;;2.53;0.60;;;8.80;97.20;;;;;;5029369;28;20033;-44
2021/01/21 10:55:34;;;;;;;1.17;0.60;;;8.70;95.70;;;;;;5029001;28;20018;-49
2021/01/21 10:58:00;;;;;;;0.25;0.25;;;8.60;94.90;;;;;;5029210;28;20032;-44
2021/01/21 11:00:25;;;;;;;7.82;0.63;;;8.70;94.40;;;;;;5028876;28;20406;-45
2021/01/21 11:02:51;;;;;;;0.55;0.40;;;8.80;92.90;;;;;;5029265;28;20557;-44
2021/01/21 11:05:16;;;;;;;1.25;0.57;;;8.70;93.30;;;;;;5028681;28;20061;-46
2021/01/21 11:07:42;;;;;;;0.63;0.60;;;8.80;92.50;;;;;;5029005;28;20434;-44
2021/01/21 11:10:08;;;;;;;1.35;0.60;;;8.80;92.90;;;;;;5029330;28;20041;-44
2021/01/21 11:12:34;;;;;;;1.92;0.90;;;8.80;92.70;;;;;;5029153;28;20413;-44
2021/01/21 11:15:00;;;;;;;1.35;0.70;;;8.80;92.30;;;;;;5028734;28;20044;-44
2021/01/21 11:17:26;;;;;;;2.70;0.57;;;8.80;92.30;;;;;;5029011;28;20065;-44
2021/01/21 11:19:51;;;;;;;4.78;0.88;;;8.90;92.00;;;;;;5028220;28;20018;-47
2021/01/21 11:22:17;;;;;;;2.67;0.75;;;8.90;92.50;;;;;;5028382;28;20654;-43
2021/01/21 11:24:43;;;;;;;2.38;0.80;;;9.30;91.50;;;;;;5028723;28;20025;-46
2021/01/21 11:27:08;;;;;;;2.22;0.70;;;9.70;89.90;;;;;;5028386;28;20061;-46
2021/01/21 11:29:34;;;;;;;2.35;0.75;;;9.70;89.70;;;;;;5028927;28;20048;-44
2021/01/21 11:31:59;;;;;;;0.75;0.50;;;9.60;88.40;;;;;;5028932;28;20495;-45
2021/01/21 11:34:25;;;;;;;2.47;0.40;;;9.40;88.00;;;;;;5028790;28;20033;-45
2021/01/21 11:36:51;;;;;;;2.10;0.70;;;9.20;90.10;;;;;;5028629;28;20495;-45
2021/01/21 11:39:17;;;;;;;2.05;0.50;;;9.20;90.50;;;;;;5028950;28;20082;-45
2021/01/21 11:41:43;;;;;;;0.75;0.40;;;9.00;91.90;;;;;;5028985;28;20100;-44
2021/01/21 11:44:08;;;;;;;1.58;0.50;;;9.00;92.80;;;;;;5028229;28;20159;-47
2021/01/21 11:46:34;;;;;;;0.85;0.55;;;9.00;93.00;;;;;;5028206;28;20055;-45
2021/01/21 11:48:59;;;;;;;0.60;0.30;;;9.00;94.00;;;;;;5029062;28;20506;-45
2021/01/21 11:51:25;;;;;;;0.82;0.32;;;8.90;95.10;;;;;;5028907;28;20041;-44
2021/01/21 11:53:50;;;;;;;0.70;0.50;;;8.90;96.50;;;;;;5029221;28;20029;-45
2021/01/21 11:56:16;;;;;;;0.40;0.40;;;8.90;96.80;;;;;;5028615;28;20104;-43
2021/01/21 11:58:42;;;;;;;1.00;0.50;;;8.90;97.80;;;;;;5029338;28;20288;-45
2021/01/21 12:01:08;;;;;;;3.35;1.10;;;8.80;98.80;;;;;;5028765;28;20520;-45
2021/01/21 12:03:34;;;;;;;1.52;0.40;;;8.80;99.20;;;;;;5029230;28;20021;-44
2021/01/21 12:06:00;;;;;;;1.17;0.60;;;8.70;99.50;;;;;;5026866;28;20025;-44
2021/01/21 12:08:26;;;;;;;1.10;0.73;;;8.80;99.50;;;;;;5029021;28;20407;-46
2021/01/21 12:10:51;;;;;;;1.50;0.65;;;8.70;99.30;;;;;;5028960;28;20022;-45
2021/01/21 12:13:17;;;;;;;1.20;0.80;;;8.70;99.70;;;;;;5028952;28;20036;-45
2021/01/21 12:15:43;;;;;;;2.95;0.80;;;9.60;97.60;;;;;;5028419;28;20091;-45
2021/01/21 12:18:09;;;;;;;0.90;0.60;;;10.30;94.30;;;;;;5028630;28;20030;-46
2021/01/21 12:20:34;;;;;;;0.95;0.80;;;11.20;89.80;;;;;;5028726;28;20029;-47
2021/01/21 12:23:00;;;;;;;2.83;0.85;;;12.00;80.10;;;;;;5028679;28;20045;-46
2021/01/21 12:25:25;;;;;;;0.47;0.45;;;12.40;74.60;;;;;;5026766;28;20116;-46
2021/01/21 12:27:50;;;;;;;0.65;0.52;;;12.10;75.00;;;;;;5028704;28;20036;-45
2021/01/21 12:30:16;;;;;;;1.55;0.70;;;12.10;74.10;;;;;;5029277;28;20183;-46
2021/01/21 12:32:42;;;;;;;1.20;0.65;;;11.90;74.20;;;;;;5028721;28;20036;-45
2021/01/21 12:35:09;;;;;;;3.72;0.88;;;12.20;74.50;;;;;;5028382;28;20030;-47
2021/01/21 12:37:36;;;;;;;4.13;1.10;;;12.20;72.00;;;;;;5028701;28;20157;-47
2021/01/21 12:40:02;;;;;;;4.82;0.95;;;12.10;72.00;;;;;;5028812;28;20427;-45
2021/01/21 12:42:27;;;;;;;1.65;0.88;;;12.00;72.90;;;;;;5028572;28;20491;-47
2021/01/21 12:44:53;;;;;;;2.55;0.80;;;11.50;74.10;;;;;;5028240;28;20037;-45
2021/01/21 12:47:18;;;;;;;2.05;0.77;;;11.40;74.90;;;;;;5028606;28;20509;-45
2021/01/21 12:49:44;;;;;;;1.95;0.90;;;11.30;74.20;;;;;;5028338;28;20025;-45
2021/01/21 12:52:11;;;;;;;2.95;0.65;;;10.90;75.40;;;;;;5028228;28;20022;-44
2021/01/21 12:54:36;;;;;;;2.05;0.80;;;10.60;78.10;;;;;;5027724;28;20084;-45
2021/01/21 12:57:02;;;;;;;5.38;1.02;;;10.50;79.00;;;;;;5027990;28;20037;-43
2021/01/21 12:59:28;;;;;;;4.35;0.93;;;10.50;78.60;;;;;;5026935;28;20500;-45
2021/01/21 13:01:53;;;;;;;2.63;0.85;;;10.40;79.50;;;;;;5028191;28;20061;-45